Terminal Aerodrome Forecast
Issued by NWS

Current Version | Previous Version | Text Only | Print | Product List | Glossary On
Versions: 1 2 3 4 5 6 7 8 9 10 11 12 13 14 15 16 17
000
FTUS45 KFGZ 222101 AAA
TAFSEZ
TAF AMD
KSEZ 222101Z 2221/2318 17015G25KT P6SM FEW040 BKN130
     FM230200 22013KT P6SM SCT200=

USA.gov is the U.S. government's official web portal to all federal, state and local government web resources and services.